createdAt,value
2022-12-16T00:02:43.736Z,14.65
2022-12-16T00:07:01.957Z,11.57
2022-12-16T00:11:20.057Z,16.00
2022-12-16T00:15:37.929Z,16.40
2022-12-16T00:19:54.803Z,16.73
2022-12-16T00:24:12.435Z,19.73
2022-12-16T00:28:29.346Z,18.27
2022-12-16T00:32:46.420Z,18.42
2022-12-16T00:37:03.428Z,14.65
2022-12-16T00:41:20.562Z,12.50
2022-12-16T00:45:39.223Z,11.82
2022-12-16T00:49:56.388Z,12.20
2022-12-16T00:54:13.296Z,12.35
2022-12-16T00:58:30.461Z,11.10
2022-12-16T01:02:49.362Z,14.15
2022-12-16T01:07:06.468Z,11.65
2022-12-16T01:11:23.302Z,19.77
2022-12-16T01:15:40.937Z,14.50
2022-12-16T01:19:57.850Z,13.70
2022-12-16T01:24:14.911Z,19.10
2022-12-16T01:28:31.808Z,14.30
2022-12-16T01:32:48.818Z,17.73
2022-12-16T01:37:06.220Z,14.13
2022-12-16T01:41:23.647Z,15.63
2022-12-16T01:45:40.769Z,17.05
2022-12-16T01:50:10.065Z,18.00
2022-12-16T01:54:43.511Z,10.00
2022-12-16T01:59:01.909Z,10.05
2022-12-16T02:03:19.383Z,6.85
2022-12-16T02:07:36.381Z,18.05
2022-12-16T02:12:17.743Z,6.20
2022-12-16T02:17:13.566Z,7.70
2022-12-16T02:22:23.752Z,18.80
2022-12-16T02:26:58.151Z,18.17
2022-12-16T02:31:32.741Z,18.77
2022-12-16T02:36:40.776Z,13.40
2022-12-16T02:41:04.020Z,18.85
2022-12-16T02:45:27.822Z,16.05
2022-12-16T02:49:51.157Z,11.65
2022-12-16T02:54:10.175Z,14.63
2022-12-16T02:58:50.612Z,10.50
2022-12-16T03:03:19.585Z,12.32
2022-12-16T03:07:41.488Z,11.85
2022-12-16T03:12:02.702Z,4.20
2022-12-16T03:16:24.632Z,11.15
2022-12-16T03:20:57.281Z,13.32
2022-12-16T03:25:15.148Z,10.20
2022-12-16T03:29:55.257Z,13.43
2022-12-16T03:34:22.973Z,11.07
2022-12-16T03:38:41.365Z,8.37
2022-12-16T03:47:23.152Z,12.43
2022-12-16T03:51:40.807Z,11.32
2022-12-16T03:55:58.191Z,10.88
2022-12-16T04:00:15.453Z,10.70
2022-12-16T04:04:32.523Z,10.75
2022-12-16T04:08:49.385Z,11.88
2022-12-16T04:13:26.110Z,11.57
2022-12-16T04:18:02.001Z,9.35
2022-12-16T04:22:57.380Z,12.25
2022-12-16T04:27:27.834Z,12.45
2022-12-16T04:31:44.982Z,11.05
2022-12-16T04:36:20.710Z,10.02
2022-12-16T04:40:56.346Z,9.48
2022-12-16T04:45:32.073Z,12.18
2022-12-16T04:50:07.758Z,9.45
2022-12-16T04:54:54.045Z,12.45
2022-12-16T04:59:29.898Z,10.27
2022-12-16T05:04:05.485Z,10.43
2022-12-16T05:08:41.500Z,12.23
2022-12-16T05:13:16.950Z,10.18
2022-12-16T05:17:54.395Z,10.95
2022-12-16T05:22:29.881Z,14.32
2022-12-16T05:27:05.498Z,12.07
2022-12-16T05:31:41.327Z,10.57
2022-12-16T05:36:17.348Z,8.07
2022-12-16T05:40:52.954Z,8.57
2022-12-16T05:45:28.946Z,12.32
2022-12-16T05:50:04.873Z,17.05
2022-12-16T05:54:40.552Z,15.77
2022-12-16T05:59:16.094Z,18.80
2022-12-16T06:03:52.176Z,13.65
2022-12-16T06:08:27.986Z,4.85
2022-12-16T06:13:07.165Z,10.50
2022-12-16T06:17:42.942Z,11.75
2022-12-16T06:22:19.854Z,11.50
2022-12-16T06:26:55.527Z,8.77
2022-12-16T06:31:31.394Z,9.20
2022-12-16T06:36:07.447Z,5.00
2022-12-16T06:40:42.789Z,6.70
2022-12-16T06:45:18.763Z,10.50
2022-12-16T06:49:54.158Z,9.07
2022-12-16T06:54:30.301Z,7.95
2022-12-16T06:59:05.918Z,9.68
2022-12-16T07:03:41.971Z,8.23
2022-12-16T07:08:18.029Z,11.20
2022-12-16T07:12:53.754Z,10.98
2022-12-16T07:17:29.465Z,10.50
2022-12-16T07:22:05.113Z,10.38
2022-12-16T07:26:40.917Z,9.85
2022-12-16T07:31:16.547Z,11.52
2022-12-16T07:35:52.238Z,9.63
2022-12-16T07:40:42.507Z,10.27
2022-12-16T07:45:17.844Z,10.85
2022-12-16T07:49:53.601Z,16.90
2022-12-16T07:54:34.639Z,10.85
2022-12-16T07:59:10.367Z,10.95
2022-12-16T08:03:46.044Z,10.75
2022-12-16T08:08:22.107Z,13.02
2022-12-16T08:12:57.776Z,10.88
2022-12-16T08:17:33.615Z,12.77
2022-12-16T08:22:09.107Z,11.40
2022-12-16T08:26:46.060Z,8.93
2022-12-16T08:31:21.568Z,8.32
2022-12-16T08:35:57.555Z,9.07
2022-12-16T08:40:35.668Z,6.45
2022-12-16T08:45:12.211Z,12.18
2022-12-16T08:49:48.067Z,11.55
2022-12-16T08:54:23.871Z,17.25
2022-12-16T08:58:59.704Z,15.27
2022-12-16T09:03:49.315Z,19.00
2022-12-16T09:08:24.785Z,12.52
2022-12-16T09:13:00.512Z,12.48
2022-12-16T09:17:36.256Z,13.52
2022-12-16T09:22:12.217Z,14.13
2022-12-16T09:26:49.024Z,15.38
2022-12-16T09:31:25.056Z,10.07
2022-12-16T09:36:00.713Z,10.68
2022-12-16T09:40:37.336Z,11.23
2022-12-16T09:45:36.160Z,13.32
2022-12-16T09:50:13.848Z,17.05
2022-12-16T09:54:55.766Z,12.00
2022-12-16T09:59:36.519Z,12.52
2022-12-16T10:04:12.068Z,17.17
2022-12-16T10:09:05.796Z,16.58
2022-12-16T10:14:19.461Z,14.73
2022-12-16T10:19:29.471Z,11.90
2022-12-16T10:24:37.690Z,13.68
2022-12-16T10:29:45.299Z,14.30
2022-12-16T10:34:29.300Z,16.65
2022-12-16T10:39:14.341Z,21.83
2022-12-16T10:43:59.615Z,17.25
2022-12-16T10:48:51.419Z,12.68
2022-12-16T10:53:49.123Z,14.05
2022-12-16T10:58:44.625Z,17.10
2022-12-16T11:03:42.252Z,11.32
2022-12-16T11:08:17.978Z,9.67
2022-12-16T11:12:53.705Z,10.90
2022-12-16T11:17:45.498Z,9.43
2022-12-16T11:22:42.188Z,24.42
2022-12-16T11:27:43.678Z,15.88
2022-12-16T11:32:42.493Z,41.13
2022-12-16T11:37:21.273Z,27.25
2022-12-16T11:42:07.905Z,15.90
2022-12-16T11:46:47.056Z,25.02
2022-12-16T11:51:24.480Z,13.88
2022-12-16T11:56:11.256Z,21.98
2022-12-16T12:00:49.107Z,17.92
2022-12-16T12:05:24.986Z,12.63
2022-12-16T12:10:11.893Z,11.52
2022-12-16T12:15:12.308Z,25.67
2022-12-16T12:20:07.491Z,28.33
2022-12-16T12:25:01.654Z,18.70
2022-12-16T12:30:17.823Z,22.40
2022-12-16T12:35:00.742Z,21.42
2022-12-16T12:39:43.857Z,14.88
2022-12-16T12:44:49.037Z,18.08
2022-12-16T12:50:07.071Z,15.38
2022-12-16T12:54:58.258Z,17.38
2022-12-16T13:00:19.034Z,12.07
2022-12-16T13:04:55.257Z,13.48
2022-12-16T13:09:52.393Z,14.07
2022-12-16T13:14:49.688Z,13.32
2022-12-16T13:19:51.290Z,15.05
2022-12-16T13:24:42.328Z,13.77
2022-12-16T13:29:51.696Z,12.23
2022-12-16T13:34:46.453Z,13.57
2022-12-16T13:39:44.292Z,13.38
2022-12-16T13:44:19.837Z,16.48
2022-12-16T13:48:59.708Z,17.77
2022-12-16T13:53:38.720Z,20.60
2022-12-16T13:58:23.151Z,24.98
2022-12-16T14:03:01.599Z,19.83
2022-12-16T14:07:41.067Z,19.80
2022-12-16T14:12:23.922Z,23.65
2022-12-16T14:17:07.630Z,23.30
2022-12-16T14:21:53.356Z,16.17
2022-12-16T14:26:33.149Z,18.83
2022-12-16T14:31:20.827Z,16.90
2022-12-16T14:36:08.505Z,20.37
2022-12-16T14:40:51.948Z,27.13
2022-12-16T14:45:52.143Z,19.23
2022-12-16T14:50:46.279Z,18.58
2022-12-16T14:55:50.965Z,18.13
2022-12-16T15:00:26.572Z,18.10
2022-12-16T15:05:03.180Z,19.52
2022-12-16T15:10:03.999Z,18.75
2022-12-16T15:14:48.043Z,16.75
2022-12-16T15:19:23.970Z,18.05
2022-12-16T15:24:03.564Z,19.83
2022-12-16T15:28:59.391Z,20.27
2022-12-16T15:33:38.433Z,18.80
2022-12-16T15:38:21.956Z,18.17
2022-12-16T15:42:57.414Z,19.77
2022-12-16T15:47:48.006Z,17.50
2022-12-16T16:06:04.162Z,18.33
2022-12-16T16:10:44.254Z,19.35
2022-12-16T16:15:20.783Z,17.15
2022-12-16T16:20:10.296Z,17.48
2022-12-16T16:24:45.917Z,18.00
2022-12-16T16:29:22.491Z,19.33
2022-12-16T16:33:58.603Z,17.35
2022-12-16T16:38:34.326Z,19.58
2022-12-16T16:43:14.613Z,19.75
2022-12-16T16:47:50.716Z,21.48
2022-12-16T16:52:34.570Z,28.17
2022-12-16T16:57:10.890Z,24.23
2022-12-16T17:01:46.669Z,20.38
2022-12-16T17:06:22.879Z,27.85
2022-12-16T17:10:58.726Z,31.17
2022-12-16T17:15:41.293Z,29.20
2022-12-16T17:20:16.819Z,25.45
2022-12-16T17:24:54.311Z,28.08
2022-12-16T17:29:57.086Z,28.15
2022-12-16T17:34:33.029Z,23.27
2022-12-16T17:39:09.609Z,27.48
2022-12-16T17:43:45.253Z,23.15
2022-12-16T17:48:20.954Z,22.80
2022-12-16T17:52:56.798Z,19.83
2022-12-16T17:57:33.721Z,21.00
2022-12-16T18:02:09.297Z,17.50
2022-12-16T18:06:45.563Z,16.40
2022-12-16T18:11:20.937Z,24.27
2022-12-16T18:15:57.010Z,17.63
2022-12-16T18:20:32.834Z,20.05
2022-12-16T18:25:08.583Z,19.90
2022-12-16T18:29:44.752Z,17.80
2022-12-16T18:34:34.045Z,25.73
2022-12-16T18:39:09.433Z,21.08
2022-12-16T18:43:45.297Z,17.80
2022-12-16T18:48:20.673Z,17.75
2022-12-16T18:52:56.750Z,18.25
2022-12-16T18:57:37.888Z,15.93
2022-12-16T19:02:16.437Z,18.85
2022-12-16T19:06:51.963Z,20.33
2022-12-16T19:11:27.837Z,16.80
2022-12-16T19:16:15.531Z,21.52
2022-12-16T19:20:51.304Z,22.20
2022-12-16T19:25:27.679Z,21.05
2022-12-16T19:30:03.639Z,19.70
2022-12-16T19:34:39.527Z,24.20
2022-12-16T19:39:15.084Z,22.60
2022-12-16T19:43:51.214Z,25.25
2022-12-16T19:53:04.525Z,28.60
2022-12-16T19:57:41.786Z,23.25
2022-12-16T20:02:17.326Z,27.00
2022-12-16T20:06:56.029Z,24.00
2022-12-16T20:11:54.613Z,27.40
2022-12-16T20:16:31.689Z,22.45
2022-12-16T20:21:07.676Z,21.65
2022-12-16T20:25:44.146Z,24.02
2022-12-16T20:30:19.627Z,19.85
2022-12-16T20:35:09.234Z,23.48
2022-12-16T20:39:51.204Z,21.90
2022-12-16T20:44:32.587Z,24.00
2022-12-16T20:49:08.033Z,23.77
2022-12-16T20:53:44.241Z,20.80
2022-12-16T20:58:19.803Z,22.40
2022-12-16T21:07:51.200Z,19.48
2022-12-16T21:12:27.803Z,21.45
2022-12-16T21:17:03.426Z,23.95
2022-12-16T21:21:39.030Z,24.67
2022-12-16T21:26:18.382Z,21.92
2022-12-16T21:30:54.324Z,24.40
2022-12-16T21:35:32.211Z,34.75
2022-12-16T21:40:07.973Z,29.58
2022-12-16T21:44:43.682Z,23.10
2022-12-16T21:49:19.507Z,23.42
2022-12-16T21:53:55.134Z,24.17
2022-12-16T21:58:33.925Z,22.33
2022-12-16T22:03:09.809Z,19.40
2022-12-16T22:07:47.199Z,26.38
2022-12-16T22:12:23.050Z,21.50
2022-12-16T22:16:58.863Z,22.52
2022-12-16T22:21:39.005Z,30.38
2022-12-16T22:26:20.358Z,24.38
2022-12-16T22:30:56.220Z,23.73
2022-12-16T22:35:32.404Z,27.92
2022-12-16T22:40:07.931Z,24.48
2022-12-16T22:44:43.773Z,21.42
2022-12-16T22:49:19.814Z,28.52
2022-12-16T23:19:15.604Z,22.60
2022-12-16T23:23:51.462Z,21.92
2022-12-16T23:28:28.208Z,20.48
2022-12-16T23:32:31.233Z,22.08
2022-12-16T23:33:03.570Z,19.05
2022-12-16T23:37:39.296Z,20.02
2022-12-16T23:42:14.896Z,19.95
2022-12-16T23:46:50.522Z,23.30
2022-12-16T23:51:26.255Z,18.45
2022-12-16T23:56:01.693Z,26.98
